Time;durP1;ratioP1;P1;durP2;ratioP2;P2;SDS_P1;SDS_P2;PMS_P1;PMS_P2;Temp;Humidity;BMP_temperature;BMP_pressure;BME280_temperature;BME280_humidity;BME280_pressure;Samples;Min_cycle;Max_cycle;Signal;HPM_P1;HPM_P2
2022/05/16 10:34:49;;;;;;;1.38;1.27;;;22.00;99.90;;;;;;6245114;22;883490;-81
2022/05/16 10:37:17;;;;;;;1.40;1.00;;;22.00;99.90;;;;;;6146710;23;1259549;-82
2022/05/16 10:39:50;;;;;;;1.00;1.00;;;22.00;99.90;;;;;;6192943;23;20211;-81
2022/05/16 10:42:23;;;;;;;2.28;1.30;;;22.00;99.90;;;;;;6191509;23;20195;-81
2022/05/16 10:44:56;;;;;;;1.10;1.10;;;22.00;99.90;;;;;;6178879;23;20670;-81
2022/05/16 10:47:29;;;;;;;1.10;1.10;;;22.10;99.90;;;;;;6162027;23;20213;-81
2022/05/16 10:50:06;;;;;;;1.52;1.33;;;22.10;99.90;;;;;;6162609;23;20264;-81
2022/05/16 10:52:39;;;;;;;0.90;0.90;;;22.10;99.90;;;;;;6162959;23;20162;-81
2022/05/16 10:55:06;;;;;;;1.38;1.27;;;22.10;99.90;;;;;;6162643;23;20281;-81
2022/05/16 10:58:07;;;;;;;1.35;1.25;;;22.10;99.90;;;;;;6163015;23;20498;-81
2022/05/16 11:00:40;;;;;;;1.10;1.10;;;22.10;99.90;;;;;;6162701;23;20246;-81
2022/05/16 11:03:39;;;;;;;1.30;1.10;;;22.10;99.90;;;;;;6161887;23;20162;-80
2022/05/16 11:06:26;;;;;;;1.75;1.13;;;22.10;99.90;;;;;;6161982;23;20272;-81
2022/05/16 11:09:03;;;;;;;1.10;1.10;;;22.10;99.90;;;;;;6161960;23;20566;-81
2022/05/16 11:11:37;;;;;;;1.15;1.08;;;22.10;99.90;;;;;;6162437;23;20162;-81
2022/05/16 11:14:13;;;;;;;0.98;0.90;;;22.10;99.90;;;;;;6164779;23;20169;-81
2022/05/16 11:16:40;;;;;;;0.45;0.45;;;22.00;99.90;;;;;;6163834;23;20242;-81
2022/05/16 11:19:17;;;;;;;3.30;0.50;;;22.00;99.90;;;;;;6164869;23;20257;-81
2022/05/16 11:21:53;;;;;;;0.45;0.20;;;21.90;99.90;;;;;;6163649;23;20162;-81
2022/05/16 11:24:31;;;;;;;0.20;0.20;;;21.90;99.90;;;;;;6164763;23;20205;-80
2022/05/16 11:27:07;;;;;;;1.27;0.70;;;21.90;99.90;;;;;;6162954;23;20240;-80
2022/05/16 11:29:42;;;;;;;2.47;0.60;;;21.90;99.90;;;;;;6161400;23;20184;-80
2022/05/16 11:32:29;;;;;;;1.85;0.82;;;22.00;99.90;;;;;;6161777;23;20158;-80
2022/05/16 11:35:03;;;;;;;0.35;0.35;;;22.00;99.90;;;;;;6162025;23;20225;-81
2022/05/16 11:38:00;;;;;;;0.40;0.40;;;22.10;99.90;;;;;;6161178;23;20248;-80
2022/05/16 11:40:35;;;;;;;0.40;0.40;;;22.10;99.90;;;;;;6162209;23;20185;-80
2022/05/16 11:43:09;;;;;;;2.63;0.50;;;22.10;99.90;;;;;;6161747;23;20213;-81
2022/05/16 11:46:03;;;;;;;3.20;0.52;;;22.10;99.90;;;;;;6159354;23;20257;-80
2022/05/16 11:48:37;;;;;;;2.58;0.45;;;22.10;99.90;;;;;;6131022;23;20174;-81
2022/05/16 11:51:12;;;;;;;2.35;0.70;;;22.20;99.90;;;;;;6161726;23;20531;-80
2022/05/16 11:53:53;;;;;;;4.57;0.68;;;22.20;99.90;;;;;;6161188;23;20158;-81
2022/05/16 12:02:21;;;;;;;7.72;0.80;;;22.30;99.90;;;;;;6164625;23;20156;-82
2022/05/16 12:04:51;;;;;;;5.75;1.10;;;22.30;99.90;;;;;;6163522;23;20518;-83
2022/05/16 12:07:23;;;;;;;3.00;0.80;;;22.30;99.90;;;;;;6163179;23;20170;-84
2022/05/16 12:10:01;;;;;;;1.77;0.90;;;22.30;99.90;;;;;;6162293;23;20203;-85
2022/05/16 12:12:39;;;;;;;5.93;0.90;;;22.30;99.90;;;;;;6162710;23;20173;-83
2022/05/16 12:15:29;;;;;;;4.15;1.10;;;22.30;99.90;;;;;;6164294;23;20201;-81
2022/05/16 12:17:59;;;;;;;2.00;1.00;;;22.30;99.90;;;;;;6162719;23;20182;-81
2022/05/16 12:20:59;;;;;;;4.18;0.93;;;22.30;99.90;;;;;;6163201;23;20245;-81
2022/05/16 12:24:01;;;;;;;4.68;0.88;;;22.30;99.90;;;;;;6163992;23;20225;-81
2022/05/16 12:27:05;;;;;;;1.83;0.75;;;22.30;99.90;;;;;;6016207;23;20184;-80
2022/05/16 12:29:40;;;;;;;2.97;0.88;;;22.40;99.90;;;;;;6014293;23;20176;-84
2022/05/16 12:32:08;;;;;;;6.70;0.70;;;22.40;99.90;;;;;;6129392;23;20200;-82
2022/05/16 12:34:45;;;;;;;2.05;0.77;;;22.40;99.90;;;;;;6163499;23;20291;-85
2022/05/16 12:37:15;;;;;;;2.45;0.80;;;22.40;99.90;;;;;;6156906;23;20181;-84
2022/05/16 12:39:58;;;;;;;1.85;1.02;;;22.40;99.90;;;;;;6156914;23;20169;-84
2022/05/16 12:42:49;;;;;;;4.45;1.17;;;22.40;99.90;;;;;;6158367;23;20189;-83
2022/05/16 12:45:41;;;;;;;1.58;0.80;;;22.50;99.90;;;;;;6154285;23;20197;-84
2022/05/16 12:48:31;;;;;;;0.90;0.70;;;22.50;99.90;;;;;;6158797;23;20211;-84
2022/05/16 12:51:26;;;;;;;1.00;0.60;;;22.50;99.90;;;;;;6159248;23;20277;-83
2022/05/16 12:54:19;;;;;;;3.83;0.55;;;22.50;99.90;;;;;;6127318;23;20262;-84
2022/05/16 12:56:50;;;;;;;3.00;0.73;;;22.50;99.90;;;;;;6156894;23;20189;-85
2022/05/16 12:59:47;;;;;;;0.45;0.45;;;22.50;99.90;;;;;;6157892;23;20181;-84
2022/05/16 13:02:20;;;;;;;1.40;0.75;;;22.50;99.90;;;;;;6158700;23;20158;-83
2022/05/16 13:04:59;;;;;;;1.02;0.68;;;22.50;99.90;;;;;;6158776;23;20260;-83
2022/05/16 13:07:39;;;;;;;3.78;0.65;;;22.50;99.90;;;;;;6162247;23;20168;-83
2022/05/16 13:10:13;;;;;;;0.75;0.25;;;22.50;99.90;;;;;;6160435;23;20282;-81
2022/05/16 13:12:50;;;;;;;5.50;1.00;;;22.50;99.90;;;;;;6162777;23;20157;-82
2022/05/16 13:15:28;;;;;;;3.03;0.82;;;22.60;99.90;;;;;;6163294;23;20197;-83
2022/05/16 13:17:58;;;;;;;1.88;0.65;;;22.60;99.90;;;;;;6162304;23;20192;-81
2022/05/16 13:20:31;;;;;;;2.30;0.60;;;22.60;99.90;;;;;;6162981;23;20183;-80
2022/05/16 13:22:59;;;;;;;3.85;0.88;;;22.70;99.90;;;;;;6161145;23;20189;-82
2022/05/16 13:25:27;;;;;;;5.18;1.13;;;22.70;99.90;;;;;;6162696;23;20209;-82
2022/05/16 13:30:42;;;;;;;10.77;1.45;;;22.70;99.90;;;;;;6163638;23;20157;-83
2022/05/16 13:33:23;;;;;;;13.00;1.15;;;22.70;99.90;;;;;;6162295;23;20200;-82
2022/05/16 13:35:50;;;;;;;7.97;1.17;;;22.70;99.90;;;;;;6159313;23;20685;-82
2022/05/16 13:38:17;;;;;;;5.10;0.73;;;22.70;99.90;;;;;;6161546;23;20228;-82
2022/05/16 13:40:47;;;;;;;3.03;0.80;;;22.70;99.90;;;;;;6162468;23;20201;-82
2022/05/16 13:43:17;;;;;;;9.85;0.93;;;22.70;99.90;;;;;;6162113;23;20189;-81
2022/05/16 13:45:45;;;;;;;1.42;0.63;;;22.70;99.90;;;;;;6162506;23;20219;-81
2022/05/16 13:48:15;;;;;;;8.68;1.10;;;22.70;99.90;;;;;;6160894;23;20546;-82
2022/05/16 13:50:44;;;;;;;2.78;0.60;;;22.70;99.90;;;;;;6162052;23;20205;-82
2022/05/16 13:53:15;;;;;;;7.15;0.60;;;22.70;99.90;;;;;;6163424;23;20257;-82
2022/05/16 13:55:46;;;;;;;7.68;1.00;;;22.70;99.90;;;;;;6165287;23;20686;-82
2022/05/16 13:58:14;;;;;;;4.15;1.52;;;22.70;99.90;;;;;;6165773;23;20220;-83
2022/05/16 14:00:46;;;;;;;8.63;0.93;;;22.70;99.90;;;;;;6165690;23;20177;-83
2022/05/16 14:03:27;;;;;;;7.43;0.85;;;22.70;99.90;;;;;;6166189;23;20228;-83
2022/05/16 14:05:56;;;;;;;8.48;1.10;;;22.70;99.90;;;;;;6166241;23;20198;-83
2022/05/16 14:08:31;;;;;;;13.15;1.17;;;22.70;99.90;;;;;;6165916;23;20173;-83
2022/05/16 14:10:59;;;;;;;4.93;1.15;;;22.70;99.90;;;;;;6166240;23;20192;-83
2022/05/16 14:13:29;;;;;;;4.45;0.90;;;22.70;99.90;;;;;;6165965;23;20178;-83
2022/05/16 14:16:05;;;;;;;2.83;1.00;;;22.70;99.90;;;;;;6166399;23;20383;-81
2022/05/16 14:18:39;;;;;;;5.63;1.60;;;22.70;99.90;;;;;;6161545;23;20181;-80
2022/05/16 14:21:14;;;;;;;5.47;0.85;;;22.70;99.90;;;;;;6162652;23;20622;-79
2022/05/16 14:23:44;;;;;;;6.10;0.80;;;22.70;99.90;;;;;;6161753;23;20162;-80
2022/05/16 14:26:18;;;;;;;13.27;1.33;;;22.70;99.90;;;;;;6160689;23;20197;-79
2022/05/16 14:28:47;;;;;;;7.07;1.20;;;22.70;99.90;;;;;;6161423;23;20153;-79
2022/05/16 14:31:23;;;;;;;13.70;1.05;;;22.70;99.90;;;;;;6160892;23;20631;-79
2022/05/16 14:33:59;;;;;;;14.45;1.70;;;22.70;99.90;;;;;;6160629;23;20210;-80
2022/05/16 14:36:32;;;;;;;7.13;1.50;;;22.70;99.90;;;;;;6161430;23;20185;-80
2022/05/16 14:39:08;;;;;;;3.67;1.20;;;22.70;99.90;;;;;;6161270;23;20177;-80
2022/05/16 14:41:50;;;;;;;7.93;0.85;;;22.70;99.90;;;;;;6162404;23;20241;-81
2022/05/16 14:44:21;;;;;;;3.80;0.75;;;22.70;99.90;;;;;;6162776;23;20224;-81
2022/05/16 14:47:02;;;;;;;5.50;0.95;;;22.70;99.90;;;;;;6161972;23;20189;-82
2022/05/16 14:49:29;;;;;;;5.05;1.23;;;22.70;99.90;;;;;;6160632;23;20154;-81
2022/05/16 14:51:57;;;;;;;2.15;0.70;;;22.70;99.90;;;;;;6159796;23;20260;-82
2022/05/16 14:54:32;;;;;;;7.18;0.98;;;22.70;99.90;;;;;;6161693;23;20197;-81
2022/05/16 14:56:59;;;;;;;8.13;1.38;;;22.70;99.90;;;;;;6162561;23;20157;-83
2022/05/16 14:59:26;;;;;;;2.80;0.88;;;22.60;99.90;;;;;;6162553;23;20350;-83
2022/05/16 15:04:39;;;;;;;9.02;0.95;;;22.70;99.90;;;;;;6162760;23;20658;-82
2022/05/16 15:07:07;;;;;;;8.45;1.25;;;22.70;99.90;;;;;;6162837;23;20197;-84
2022/05/16 15:09:35;;;;;;;10.68;1.10;;;22.70;99.90;;;;;;6164137;23;20220;-84
2022/05/16 15:12:05;;;;;;;5.97;1.00;;;22.70;99.90;;;;;;6162359;23;20184;-84
2022/05/16 15:14:33;;;;;;;11.20;1.20;;;22.70;99.90;;;;;;6162833;23;20204;-81
2022/05/16 15:17:00;;;;;;;11.20;1.08;;;22.70;99.90;;;;;;6162570;23;20207;-83
2022/05/16 15:19:26;;;;;;;12.00;1.17;;;22.70;99.90;;;;;;6162287;23;20243;-81
2022/05/16 15:21:55;;;;;;;22.38;1.52;;;22.70;99.90;;;;;;6163298;23;20181;-81
2022/05/16 15:24:28;;;;;;;13.45;1.33;;;22.70;99.90;;;;;;6163787;23;20200;-81
2022/05/16 15:26:55;;;;;;;11.07;1.23;;;22.70;99.90;;;;;;6164401;23;20217;-82
2022/05/16 15:29:24;;;;;;;7.90;1.08;;;22.70;99.90;;;;;;6162890;23;20253;-82
2022/05/16 15:31:51;;;;;;;7.90;1.00;;;22.60;99.90;;;;;;6162984;23;20264;-82
2022/05/16 15:34:18;;;;;;;6.07;1.08;;;22.60;99.90;;;;;;6164172;23;20198;-81
2022/05/16 15:36:44;;;;;;;2.38;0.50;;;22.70;99.90;;;;;;6161573;23;20574;-81
2022/05/16 15:39:21;;;;;;;5.78;0.60;;;22.70;99.90;;;;;;6162269;23;20205;-81
2022/05/16 15:41:47;;;;;;;3.03;0.70;;;22.70;99.90;;;;;;6164104;23;20193;-81
2022/05/16 15:44:14;;;;;;;3.63;0.60;;;22.70;99.90;;;;;;6163367;23;20529;-81
2022/05/16 15:46:42;;;;;;;4.57;0.50;;;22.70;99.90;;;;;;6162553;23;20173;-83
2022/05/16 15:49:10;;;;;;;1.00;0.45;;;22.70;99.90;;;;;;6164639;23;20174;-83
2022/05/16 15:51:38;;;;;;;2.65;0.55;;;22.70;99.90;;;;;;6168459;23;20174;-81
2022/05/16 15:54:07;;;;;;;3.03;0.40;;;22.70;99.90;;;;;;6167920;23;20169;-82
2022/05/16 15:56:36;;;;;;;2.17;0.40;;;22.70;99.90;;;;;;6168148;23;20162;-81
2022/05/16 15:59:04;;;;;;;7.35;0.57;;;22.70;99.90;;;;;;6166991;23;20245;-82
2022/05/16 16:01:32;;;;;;;0.28;0.28;;;22.70;99.90;;;;;;6167969;23;20173;-82
2022/05/16 16:09:29;;;;;;;0.65;0.50;;;22.70;99.90;;;;;;6164049;23;20213;-80
2022/05/16 16:11:58;;;;;;;6.70;0.50;;;22.70;99.90;;;;;;6163672;23;20220;-80
2022/05/16 16:14:26;;;;;;;0.80;0.30;;;22.70;99.90;;;;;;6164296;23;20198;-79
2022/05/16 16:16:55;;;;;;;0.20;0.20;;;22.70;99.90;;;;;;6165035;23;20230;-79
2022/05/16 16:19:25;;;;;;;0.20;0.20;;;22.60;99.90;;;;;;6164154;23;20197;-79
2022/05/16 16:21:53;;;;;;;0.25;0.22;;;22.70;99.90;;;;;;6164720;23;20229;-79
2022/05/16 16:24:21;;;;;;;0.20;0.20;;;22.60;99.90;;;;;;6164190;23;20206;-79
2022/05/16 16:26:49;;;;;;;0.20;0.20;;;22.60;99.90;;;;;;6163740;23;20199;-78
2022/05/16 16:29:18;;;;;;;0.98;0.20;;;22.60;99.90;;;;;;6164424;23;20173;-81
2022/05/16 16:31:45;;;;;;;0.77;0.20;;;22.60;99.90;;;;;;6164201;23;20184;-80
2022/05/16 16:34:14;;;;;;;0.57;0.22;;;22.60;99.90;;;;;;6164519;23;20233;-80
2022/05/16 16:36:42;;;;;;;4.38;0.35;;;22.60;99.90;;;;;;6164600;23;20185;-81
2022/05/16 16:39:10;;;;;;;2.33;0.30;;;22.60;99.90;;;;;;6164701;23;20189;-82
2022/05/16 16:41:38;;;;;;;7.85;0.40;;;22.60;99.90;;;;;;6163355;23;20265;-79
2022/05/16 16:44:06;;;;;;;6.18;0.55;;;22.60;99.90;;;;;;6166151;23;20177;-81
2022/05/16 16:46:35;;;;;;;2.40;0.40;;;22.60;99.90;;;;;;6166626;23;20184;-82
2022/05/16 16:49:03;;;;;;;4.75;0.60;;;22.60;99.90;;;;;;6167269;23;20181;-82
2022/05/16 16:59:54;;;;;;;0.68;0.40;;;22.60;99.90;;;;;;6167149;23;20209;-81
2022/05/16 17:02:25;;;;;;;4.07;0.40;;;22.50;99.90;;;;;;6167996;23;20173;-81
2022/05/16 17:04:55;;;;;;;0.60;0.40;;;22.50;99.90;;;;;;6166116;23;20639;-81
2022/05/16 17:07:22;;;;;;;3.10;0.40;;;22.50;99.90;;;;;;6164444;23;20182;-81
2022/05/16 17:09:50;;;;;;;3.22;0.20;;;22.50;99.90;;;;;;6161199;23;20253;-79
2022/05/16 17:12:18;;;;;;;0.35;0.25;;;22.50;99.90;;;;;;6161612;23;20185;-81
2022/05/16 17:14:45;;;;;;;3.83;0.32;;;22.50;99.90;;;;;;6161462;23;20193;-80
2022/05/16 17:17:13;;;;;;;2.97;0.30;;;22.50;99.90;;;;;;6161390;23;20278;-80
2022/05/16 17:19:42;;;;;;;7.88;0.50;;;22.50;99.90;;;;;;6161598;23;20189;-80
2022/05/16 17:22:12;;;;;;;6.43;0.50;;;22.50;99.90;;;;;;6160425;23;20690;-80
2022/05/16 17:24:39;;;;;;;15.05;0.43;;;22.60;99.90;;;;;;6163273;23;20252;-79
2022/05/16 17:27:06;;;;;;;7.45;0.73;;;22.60;99.90;;;;;;6166858;23;20185;-79
2022/05/16 17:29:33;;;;;;;2.90;0.65;;;22.50;99.90;;;;;;6164428;23;20201;-81
2022/05/16 17:32:00;;;;;;;4.82;0.88;;;22.50;99.90;;;;;;6162300;23;20208;-81
2022/05/16 17:34:27;;;;;;;2.70;0.47;;;22.40;99.90;;;;;;6162512;23;20254;-81
2022/05/16 17:36:55;;;;;;;6.05;0.80;;;22.40;99.90;;;;;;6162249;23;20216;-82
2022/05/16 17:45:20;;;;;;;102.53;9.98;;;24.20;99.90;;;;;;5111575;27;20981;-75
2022/05/16 17:47:47;;;;;;;16.33;2.78;;;24.10;99.90;;;;;;5111470;28;20217;-76
2022/05/16 17:50:14;;;;;;;35.50;4.85;;;23.90;99.90;;;;;;5111450;28;20314;-76
2022/05/16 17:52:40;;;;;;;12.43;2.42;;;23.70;99.90;;;;;;5111437;28;20257;-76
2022/05/16 17:55:10;;;;;;;15.02;2.50;;;23.60;99.90;;;;;;5111332;28;20275;-76
2022/05/16 17:57:38;;;;;;;10.98;2.90;;;23.50;99.90;;;;;;5111715;28;20224;-75
2022/05/16 18:00:07;;;;;;;11.00;1.30;;;23.40;99.90;;;;;;5111274;28;20222;-76
2022/05/16 18:02:37;;;;;;;7.82;1.38;;;23.40;99.90;;;;;;5110903;28;20223;-77
2022/05/16 18:05:06;;;;;;;10.10;1.20;;;23.40;99.90;;;;;;5111141;28;20325;-78
2022/05/16 18:07:33;;;;;;;6.35;1.17;;;23.40;99.90;;;;;;5110478;28;20554;-77
2022/05/16 18:10:00;;;;;;;6.03;1.33;;;23.60;99.90;;;;;;5111724;28;20226;-79
2022/05/16 18:12:42;;;;;;;22.23;1.90;;;23.50;99.90;;;;;;5111688;28;20265;-80
2022/05/16 18:15:11;;;;;;;28.05;2.25;;;23.50;99.90;;;;;;5111675;28;20317;-75
2022/05/16 18:17:41;;;;;;;14.32;1.55;;;23.50;99.90;;;;;;5110991;28;20220;-76
2022/05/16 18:20:10;;;;;;;16.75;1.40;;;23.50;99.90;;;;;;5110965;28;20217;-76
2022/05/16 18:22:37;;;;;;;8.15;1.75;;;23.50;99.90;;;;;;5110561;28;20683;-75
2022/05/16 18:25:09;;;;;;;5.90;1.55;;;23.50;99.90;;;;;;5110722;28;20603;-75
2022/05/16 18:27:36;;;;;;;6.65;1.88;;;23.50;99.90;;;;;;5110837;28;20203;-75
2022/05/16 18:30:05;;;;;;;19.27;2.22;;;23.50;99.90;;;;;;5110715;28;20306;-75
2022/05/16 18:32:33;;;;;;;14.18;1.98;;;23.50;99.90;;;;;;5110700;28;20254;-75
2022/05/16 18:35:01;;;;;;;14.73;1.77;;;23.50;99.90;;;;;;5110584;28;20326;-75
2022/05/16 18:37:28;;;;;;;8.82;1.98;;;23.50;99.90;;;;;;5110344;28;20652;-75
2022/05/16 18:39:55;;;;;;;6.55;1.50;;;23.50;99.90;;;;;;5110225;28;20226;-75
2022/05/16 18:50:45;;;;;;;5.70;1.20;;;23.50;99.90;;;;;;5110325;28;20318;-76
2022/05/16 18:53:12;;;;;;;5.15;1.23;;;23.50;99.90;;;;;;5110333;28;20202;-76
2022/05/16 18:55:39;;;;;;;6.95;1.77;;;23.50;99.90;;;;;;5102415;28;20242;-76
2022/05/16 18:58:08;;;;;;;3.65;1.35;;;23.50;99.90;;;;;;5096670;28;20247;-76
2022/05/16 19:00:38;;;;;;;6.78;1.65;;;23.50;99.90;;;;;;5096276;28;20222;-76
2022/05/16 19:03:05;;;;;;;4.57;1.38;;;23.50;99.90;;;;;;5096315;28;20255;-76
2022/05/16 19:05:34;;;;;;;7.60;1.48;;;23.50;99.90;;;;;;5096435;28;20242;-78
2022/05/16 19:08:03;;;;;;;3.03;1.20;;;23.50;99.90;;;;;;5096414;28;20301;-78
2022/05/16 19:10:30;;;;;;;1.58;1.38;;;23.50;99.90;;;;;;5096121;28;20707;-78
2022/05/16 19:12:58;;;;;;;10.35;1.25;;;23.50;99.90;;;;;;5096072;28;20722;-78
2022/05/16 19:15:26;;;;;;;6.50;1.70;;;23.50;99.90;;;;;;5096371;28;20243;-78
2022/05/16 19:17:54;;;;;;;4.68;1.35;;;23.50;99.90;;;;;;5095954;28;20309;-78
2022/05/16 19:20:22;;;;;;;;;;;23.50;99.90;;;;;;5096609;28;20221;-78
2022/05/16 19:22:49;;;;;;;;;;;23.50;99.90;;;;;;5096551;28;19926;-78
2022/05/16 19:25:19;;;;;;;;;;;23.40;99.90;;;;;;5096082;28;19942;-78
2022/05/16 19:33:15;;;;;;;;;;;23.30;99.90;;;;;;5096489;28;20287;-78
2022/05/16 19:35:42;;;;;;;;;;;23.30;99.90;;;;;;5097236;28;20347;-79
2022/05/16 19:38:09;;;;;;;;;;;23.30;99.90;;;;;;5097231;28;20438;-78
2022/05/16 19:40:38;;;;;;;;;;;23.30;99.90;;;;;;5097746;28;19951;-79
2022/05/16 19:43:05;;;;;;;;;;;23.30;99.90;;;;;;5096390;28;20283;-79
2022/05/16 19:45:32;;;;;;;;;;;23.20;99.90;;;;;;5096946;28;20010;-78
2022/05/16 19:47:58;;;;;;;;;;;23.20;99.90;;;;;;5097251;28;19971;-79
2022/05/16 19:50:25;;;;;;;;;;;23.20;99.90;;;;;;5097945;28;19959;-77
2022/05/16 19:52:52;;;;;;;;;;;23.20;99.90;;;;;;5096037;28;19924;-76
2022/05/16 19:55:20;;;;;;;;;;;23.20;99.90;;;;;;5095641;28;20389;-76
2022/05/16 19:57:48;;;;;;;;;;;23.20;99.90;;;;;;5095670;28;19963;-76
2022/05/16 20:00:15;;;;;;;;;;;23.20;99.90;;;;;;5095913;28;19920;-76
2022/05/16 20:02:42;;;;;;;;;;;23.20;99.90;;;;;;5096101;28;19930;-76
2022/05/16 20:05:09;;;;;;;;;;;23.20;99.90;;;;;;5096032;28;20007;-77
2022/05/16 20:07:36;;;;;;;;;;;23.20;99.90;;;;;;5094569;28;19942;-77
2022/05/16 20:10:03;;;;;;;;;;;23.20;99.90;;;;;;5095707;28;19926;-77
2022/05/16 20:12:29;;;;;;;;;;;23.20;99.90;;;;;;5095858;28;20302;-77
2022/05/16 20:14:58;;;;;;;;;;;23.20;99.90;;;;;;5095392;28;19987;-76
2022/05/16 20:17:24;;;;;;;;;;;23.20;99.90;;;;;;5095396;28;20278;-76
2022/05/16 20:19:51;;;;;;;;;;;23.20;99.90;;;;;;5095285;28;20371;-77
2022/05/16 20:27:46;;;;;;;;;;;23.20;99.90;;;;;;5095189;28;20477;-76
2022/05/16 20:30:14;;;;;;;;;;;23.20;99.90;;;;;;5095359;28;19920;-76
2022/05/16 20:32:41;;;;;;;;;;;23.20;99.90;;;;;;5095415;28;19970;-77
2022/05/16 20:35:09;;;;;;;;;;;23.20;99.90;;;;;;5095905;28;19920;-76
2022/05/16 20:37:36;;;;;;;;;;;23.20;99.90;;;;;;5095445;28;19926;-76
2022/05/16 20:40:03;;;;;;;;;;;23.20;99.90;;;;;;5095391;28;19920;-76
2022/05/16 20:42:29;;;;;;;;;;;23.20;99.90;;;;;;5094876;28;20327;-76
2022/05/16 20:44:56;;;;;;;;;;;23.20;99.90;;;;;;5094494;28;20343;-76
2022/05/16 20:47:24;;;;;;;;;;;23.20;99.90;;;;;;5094723;28;19920;-77
2022/05/16 20:49:51;;;;;;;;;;;23.20;99.90;;;;;;5094588;28;20368;-76
2022/05/16 20:52:18;;;;;;;;;;;23.20;99.90;;;;;;5094543;28;19920;-76
2022/05/16 20:54:45;;;;;;;;;;;23.20;99.90;;;;;;5094409;28;20303;-76
2022/05/16 20:57:11;;;;;;;;;;;23.20;99.90;;;;;;5094743;28;20366;-76
2022/05/16 20:59:38;;;;;;;;;;;23.20;99.90;;;;;;5094381;28;20351;-76
2022/05/16 21:02:05;;;;;;;;;;;23.20;99.90;;;;;;5094362;28;19920;-76
2022/05/16 21:04:33;;;;;;;;;;;23.20;99.90;;;;;;5094437;28;19967;-76
2022/05/16 21:07:00;;;;;;;;;;;23.20;99.90;;;;;;5094647;28;19920;-76
2022/05/16 21:09:27;;;;;;;;;;;23.20;99.90;;;;;;5094567;28;19963;-76
2022/05/16 21:11:54;;;;;;;;;;;23.20;99.90;;;;;;5094198;28;20367;-76
2022/05/16 21:14:20;;;;;;;;;;;23.20;99.90;;;;;;5094115;28;19920;-75
2022/05/16 21:16:47;;;;;;;;;;;23.20;99.90;;;;;;5094147;28;20393;-75
2022/05/16 21:19:13;;;;;;;;;;;23.20;99.90;;;;;;5094209;28;19927;-75
2022/05/16 21:21:41;;;;;;;;;;;23.20;99.90;;;;;;5094346;28;19959;-75
2022/05/16 21:24:08;;;;;;;;;;;23.20;99.90;;;;;;5093883;28;19923;-75
2022/05/16 21:26:35;;;;;;;;;;;23.20;99.90;;;;;;5094300;28;19920;-75
2022/05/16 21:29:02;;;;;;;;;;;23.20;99.90;;;;;;5094283;28;19930;-76
2022/05/16 21:31:28;;;;;;;;;;;23.20;99.90;;;;;;5094261;28;20018;-76
2022/05/16 21:33:55;;;;;;;;;;;23.20;99.90;;;;;;5094162;28;19942;-75
2022/05/16 21:36:22;;;;;;;;;;;23.20;99.90;;;;;;5094149;28;20391;-75
2022/05/16 21:38:50;;;;;;;;;;;23.20;99.90;;;;;;5094187;28;20014;-76
2022/05/16 21:41:16;;;;;;;;;;;23.20;99.90;;;;;;5094119;28;19920;-76
2022/05/16 21:46:28;;;;;;;;;;;23.10;99.90;;;;;;5093924;28;19927;-76
2022/05/16 21:48:55;;;;;;;;;;;23.10;99.90;;;;;;5094027;28;19955;-76
2022/05/16 21:51:22;;;;;;;;;;;23.10;99.90;;;;;;5094066;28;19924;-76
2022/05/16 21:53:50;;;;;;;;;;;23.20;99.90;;;;;;5094088;28;20007;-77
2022/05/16 21:56:17;;;;;;;;;;;23.10;99.90;;;;;;5093948;28;19926;-75
2022/05/16 21:58:43;;;;;;;;;;;23.10;99.90;;;;;;5093950;28;19919;-74
2022/05/16 22:01:10;;;;;;;;;;;23.10;99.90;;;;;;5093667;28;20014;-74
2022/05/16 22:03:36;;;;;;;;;;;23.10;99.90;;;;;;5093816;28;20007;-75
2022/05/16 22:06:03;;;;;;;;;;;23.10;99.90;;;;;;5093779;28;19920;-75
2022/05/16 22:08:30;;;;;;;;;;;23.10;99.90;;;;;;5093827;28;20286;-75
2022/05/16 22:10:59;;;;;;;;;;;23.10;99.90;;;;;;5093588;28;20295;-75
2022/05/16 22:13:26;;;;;;;;;;;23.10;99.90;;;;;;5093848;28;19970;-75
2022/05/16 22:15:53;;;;;;;;;;;23.10;99.90;;;;;;5093808;28;19924;-75
2022/05/16 22:18:20;;;;;;;;;;;23.10;99.90;;;;;;5094666;28;19920;-75
2022/05/16 22:20:46;;;;;;;;;;;23.10;99.90;;;;;;5093864;28;19920;-74
2022/05/16 22:23:13;;;;;;;;;;;23.10;99.90;;;;;;5093837;28;19927;-74
2022/05/16 22:25:40;;;;;;;;;;;23.10;99.90;;;;;;5093354;28;20363;-74
2022/05/16 22:28:08;;;;;;;;;;;23.10;99.90;;;;;;5093747;28;19920;-74
2022/05/16 22:30:36;;;;;;;;;;;23.10;99.90;;;;;;5094712;28;19926;-74
2022/05/16 22:33:03;;;;;;;;;;;23.10;99.90;;;;;;5097567;28;19920;-74
2022/05/16 22:35:30;;;;;;;;;;;23.10;99.90;;;;;;5097438;28;19942;-74
2022/05/16 22:37:57;;;;;;;;;;;23.10;99.90;;;;;;5097474;28;19927;-74
2022/05/16 22:40:25;;;;;;;;;;;23.10;99.90;;;;;;5097124;28;20310;-74
2022/05/16 22:42:52;;;;;;;;;;;23.10;99.90;;;;;;5097291;28;19920;-74
2022/05/16 22:45:21;;;;;;;;;;;23.10;99.90;;;;;;5097215;28;19920;-74
2022/05/16 22:47:47;;;;;;;;;;;23.10;99.90;;;;;;5096938;28;19920;-74
2022/05/16 22:50:15;;;;;;;;;;;23.10;99.90;;;;;;5097281;28;20290;-74
2022/05/16 22:52:42;;;;;;;;;;;23.10;99.90;;;;;;5097216;28;19920;-74
2022/05/16 22:55:09;;;;;;;;;;;23.10;99.90;;;;;;5097079;28;19930;-74
2022/05/16 22:57:36;;;;;;;;;;;23.10;99.90;;;;;;5096783;28;20375;-74
2022/05/16 23:00:04;;;;;;;;;;;23.10;99.90;;;;;;5097072;28;19924;-74
2022/05/16 23:05:16;;;;;;;;;;;23.10;99.90;;;;;;5096752;28;19942;-74
2022/05/16 23:07:43;;;;;;;;;;;23.10;99.90;;;;;;5096928;28;19920;-74
2022/05/16 23:10:11;;;;;;;;;;;23.10;99.90;;;;;;5096876;28;20355;-74
2022/05/16 23:12:38;;;;;;;;;;;23.10;99.90;;;;;;5096832;28;19927;-74
2022/05/16 23:15:05;;;;;;;;;;;23.10;99.90;;;;;;5096701;28;20018;-74
2022/05/16 23:17:34;;;;;;;2.13;1.30;;;23.10;99.90;;;;;;5095151;28;20437;-74
2022/05/16 23:20:00;;;;;;;2.38;1.23;;;23.60;99.90;;;;;;5095954;28;20263;-74
2022/05/16 23:22:27;;;;;;;5.35;1.42;;;23.40;99.90;;;;;;5096207;28;20241;-74
2022/05/16 23:24:54;;;;;;;1.85;1.00;;;23.40;99.90;;;;;;5095681;28;20327;-74
2022/05/16 23:27:21;;;;;;;4.78;1.40;;;23.40;99.90;;;;;;5096107;28;20214;-74
2022/05/16 23:29:48;;;;;;;2.85;1.10;;;23.40;99.90;;;;;;5096059;28;20300;-74
2022/05/16 23:32:15;;;;;;;1.88;1.00;;;23.40;99.90;;;;;;5095992;28;20240;-74
2022/05/16 23:34:43;;;;;;;2.90;1.15;;;23.40;99.90;;;;;;5095903;28;20328;-74
2022/05/16 23:37:10;;;;;;;1.85;0.98;;;23.40;99.90;;;;;;5095633;28;20226;-74
2022/05/16 23:39:37;;;;;;;2.15;1.75;;;23.40;99.90;;;;;;5095885;28;20226;-74
2022/05/16 23:42:05;;;;;;;2.60;1.00;;;23.40;99.90;;;;;;5095722;28;20263;-74
2022/05/16 23:44:32;;;;;;;4.28;1.35;;;23.40;99.90;;;;;;5095309;28;20282;-74
2022/05/16 23:46:58;;;;;;;1.17;1.00;;;23.40;99.90;;;;;;5095361;28;20237;-74
2022/05/16 23:49:25;;;;;;;1.52;1.10;;;23.40;99.90;;;;;;5095689;28;20309;-74
2022/05/16 23:51:53;;;;;;;1.42;1.15;;;23.40;99.90;;;;;;5095629;28;20230;-74
2022/05/16 23:54:20;;;;;;;4.50;1.20;;;23.40;99.90;;;;;;5095529;28;20230;-74
2022/05/16 23:56:47;;;;;;;2.15;1.10;;;23.40;99.90;;;;;;5095533;28;20250;-74
2022/05/16 23:59:14;;;;;;;3.47;1.10;;;23.40;99.90;;;;;;5095160;28;20743;-74
